Terminal Aerodrome Forecast
Issued by NWS Northern Indiana

Home | Current Version | Previous Version | Text Only | Print | Product List | Glossary On
Versions: 1 2 3 4 5 6 7 8 9 10 11 12 13
000
FTUS43 KIWX 241100
TAFFWA
TAF
KFWA 241130Z 2412/2512 11010KT P6SM BKN100
     FM241500 13015G22KT P6SM BKN150
     FM250000 13011KT P6SM BKN150
     FM250900 14010KT 5SM -RA OVC030=

USA.gov is the U.S. government's official web portal to all federal, state and local government web resources and services.